createdAt,value
2018-04-28T00:00:45.918Z,4.27
2018-04-28T00:03:11.789Z,4.60
2018-04-28T00:05:37.683Z,4.20
2018-04-28T00:08:03.696Z,4.33
2018-04-28T00:10:29.505Z,4.40
2018-04-28T00:12:55.393Z,4.17
2018-04-28T00:15:21.257Z,4.60
2018-04-28T00:17:47.159Z,4.27
2018-04-28T00:20:13.007Z,4.20
2018-04-28T00:22:39.754Z,4.37
2018-04-28T00:25:11.682Z,4.43
2018-04-28T00:27:39.394Z,4.53
2018-04-28T00:30:06.152Z,4.33
2018-04-28T00:32:32.026Z,4.23
2018-04-28T00:34:57.893Z,4.40
2018-04-28T00:37:26.719Z,3.97
2018-04-28T00:40:02.562Z,4.50
2018-04-28T00:42:31.245Z,4.63
2018-04-28T00:44:57.110Z,4.67
2018-04-28T00:47:23.051Z,4.73
2018-04-28T00:52:43.839Z,4.80
2018-04-28T00:55:11.539Z,4.50
2018-04-28T00:57:58.523Z,4.50
2018-04-28T01:00:46.478Z,4.03
2018-04-28T01:03:12.363Z,4.30
2018-04-28T01:05:53.984Z,5.30
2018-04-28T01:08:24.865Z,5.50
2018-04-28T01:10:50.727Z,5.20
2018-04-28T01:13:16.640Z,5.13
2018-04-28T01:15:42.503Z,4.57
2018-04-28T01:18:15.504Z,5.43
2018-04-28T01:20:43.175Z,5.60
2018-04-28T01:23:09.070Z,5.23
2018-04-28T01:25:49.882Z,5.20
2018-04-28T01:28:15.768Z,4.87
2018-04-28T01:30:46.521Z,4.80
2018-04-28T01:36:30.124Z,4.50
2018-04-28T01:38:56.008Z,4.60
2018-04-28T01:41:24.666Z,4.73
2018-04-28T01:43:50.542Z,5.03
2018-04-28T01:46:35.325Z,4.67
2018-04-28T01:49:01.203Z,5.07
2018-04-28T01:51:27.869Z,5.47
2018-04-28T01:57:07.097Z,4.90
2018-04-28T02:02:28.514Z,5.27
2018-04-28T02:04:54.428Z,5.37
2018-04-28T02:07:20.304Z,5.43
2018-04-28T02:09:51.185Z,5.50
2018-04-28T02:12:33.826Z,5.63
2018-04-28T02:15:07.680Z,5.27
2018-04-28T02:17:53.346Z,5.33
2018-04-28T02:20:22.040Z,5.60
2018-04-28T02:22:54.066Z,5.57
2018-04-28T02:25:22.790Z,5.33
2018-04-28T02:31:06.553Z,6.10
2018-04-28T02:33:32.461Z,5.50
2018-04-28T02:36:06.439Z,5.67
2018-04-28T02:38:34.205Z,5.70
2018-04-28T02:41:09.128Z,5.13
2018-04-28T02:43:35.931Z,5.13
2018-04-28T02:46:02.763Z,5.37
2018-04-28T02:51:44.938Z,5.63
2018-04-28T02:54:14.841Z,5.20
2018-04-28T02:56:59.712Z,5.33
2018-04-28T02:59:30.491Z,5.30
2018-04-28T03:01:58.209Z,6.17
2018-04-28T03:04:31.240Z,5.87
2018-04-28T03:09:52.926Z,6.23
2018-04-28T03:12:18.775Z,5.70
2018-04-28T03:14:45.493Z,6.43
2018-04-28T03:17:13.177Z,6.10
2018-04-28T03:19:39.044Z,5.70
2018-04-28T03:22:04.959Z,6.37
2018-04-28T03:24:35.922Z,6.17
2018-04-28T03:27:02.824Z,6.40
2018-04-28T03:29:33.646Z,6.30
2018-04-28T03:31:59.567Z,6.10
2018-04-28T03:34:31.475Z,6.67
2018-04-28T03:37:06.621Z,6.70
2018-04-28T03:39:39.462Z,7.10
2018-04-28T03:42:06.275Z,6.83
2018-04-28T03:44:32.128Z,7.50
2018-04-28T03:47:05.952Z,7.43
2018-04-28T03:49:31.825Z,7.43
2018-04-28T03:54:58.625Z,7.80
2018-04-28T03:57:36.808Z,7.37
2018-04-28T04:00:15.010Z,7.33
2018-04-28T04:02:53.205Z,7.63
2018-04-28T04:05:23.966Z,7.87
2018-04-28T04:07:49.835Z,7.10
2018-04-28T04:10:30.062Z,7.63
2018-04-28T04:12:57.812Z,7.30
2018-04-28T04:18:35.763Z,8.17
2018-04-28T04:24:16.209Z,8.03
2018-04-28T04:26:57.032Z,7.53
2018-04-28T04:32:25.043Z,7.97
2018-04-28T04:37:56.115Z,7.53
2018-04-28T04:43:37.396Z,8.50
2018-04-28T04:49:24.994Z,7.50
2018-04-28T04:52:13.846Z,6.93
2018-04-28T04:54:57.318Z,7.30
2018-04-28T04:57:24.892Z,6.80
2018-04-28T04:59:58.857Z,6.57
2018-04-28T05:02:30.883Z,7.70
2018-04-28T05:04:58.603Z,7.23
2018-04-28T05:07:32.528Z,6.77
2018-04-28T05:10:00.240Z,6.83
2018-04-28T05:12:26.112Z,6.63
2018-04-28T05:14:59.227Z,6.83
2018-04-28T05:17:26.902Z,6.20
2018-04-28T05:20:05.038Z,6.47
2018-04-28T05:22:36.983Z,5.70
2018-04-28T05:28:09.908Z,6.33
2018-04-28T05:30:42.982Z,6.33
2018-04-28T05:33:17.957Z,6.27
2018-04-28T05:36:07.807Z,6.03
2018-04-28T05:38:38.534Z,6.33
2018-04-28T05:41:14.550Z,6.43
2018-04-28T05:43:52.776Z,6.00
2018-04-28T05:46:41.462Z,6.23
2018-04-28T05:49:13.279Z,5.57
2018-04-28T05:54:55.793Z,5.80
2018-04-28T06:00:52.803Z,5.27
2018-04-28T06:03:31.040Z,4.93
2018-04-28T06:06:09.804Z,5.10
2018-04-28T06:08:57.590Z,4.67
2018-04-28T06:14:32.767Z,4.00
2018-04-28T06:17:03.410Z,4.67
2018-04-28T06:22:26.239Z,4.10
2018-04-28T06:24:52.120Z,4.33
2018-04-28T06:27:18.017Z,3.73
2018-04-28T06:29:43.866Z,3.57
2018-04-28T06:32:09.755Z,3.60
2018-04-28T06:34:35.649Z,3.67
2018-04-28T06:37:01.513Z,2.80
2018-04-28T06:39:27.425Z,3.00
2018-04-28T06:41:53.272Z,3.50
2018-04-28T06:44:19.287Z,3.30
2018-04-28T06:46:45.269Z,3.17
2018-04-28T06:49:11.132Z,3.30
2018-04-28T06:51:36.978Z,2.77
2018-04-28T06:54:02.854Z,3.00
2018-04-28T06:56:28.727Z,2.97
2018-04-28T06:58:54.589Z,3.20
2018-04-28T07:01:20.484Z,2.73
2018-04-28T07:03:46.337Z,3.13
2018-04-28T07:06:12.213Z,2.80
2018-04-28T07:08:38.079Z,3.10
2018-04-28T07:11:03.935Z,2.60
2018-04-28T07:13:29.792Z,2.57
2018-04-28T07:15:55.624Z,2.80
2018-04-28T07:18:21.518Z,2.87
2018-04-28T07:20:47.362Z,2.70
2018-04-28T07:23:13.240Z,2.80
2018-04-28T07:25:39.123Z,2.80
2018-04-28T07:28:04.982Z,2.30
2018-04-28T07:30:30.857Z,2.83
2018-04-28T07:32:56.710Z,2.67
2018-04-28T07:35:22.610Z,2.83
2018-04-28T07:37:48.437Z,2.57
2018-04-28T07:40:14.338Z,2.83
2018-04-28T07:42:40.207Z,2.70
2018-04-28T07:45:06.075Z,2.90
2018-04-28T07:47:31.979Z,2.40
2018-04-28T07:49:57.883Z,2.63
2018-04-28T07:52:23.762Z,3.07
2018-04-28T07:54:49.651Z,2.77
2018-04-28T07:57:15.528Z,3.30
2018-04-28T07:59:41.376Z,2.50
2018-04-28T08:02:07.239Z,2.60
2018-04-28T08:04:33.162Z,2.93
2018-04-28T08:06:59.103Z,2.90
2018-04-28T08:09:24.935Z,2.70
2018-04-28T08:11:50.828Z,2.90
2018-04-28T08:14:16.788Z,2.87
2018-04-28T08:16:42.629Z,2.90
2018-04-28T08:19:08.515Z,3.07
2018-04-28T08:21:34.440Z,2.80
2018-04-28T08:24:00.337Z,3.13
2018-04-28T08:26:26.250Z,2.90
2018-04-28T08:28:52.115Z,3.23
2018-04-28T08:31:17.973Z,2.80
2018-04-28T08:33:43.831Z,3.07
2018-04-28T08:36:09.722Z,3.20
2018-04-28T08:38:35.608Z,2.90
2018-04-28T08:41:01.481Z,3.00
2018-04-28T08:43:27.357Z,3.20
2018-04-28T08:45:53.230Z,2.70
2018-04-28T08:48:19.127Z,2.90
2018-04-28T08:50:45.018Z,2.80
2018-04-28T08:53:10.891Z,3.07
2018-04-28T08:55:36.779Z,2.90
2018-04-28T08:58:02.631Z,3.17
2018-04-28T09:00:28.511Z,3.30
2018-04-28T09:02:54.371Z,3.57
2018-04-28T09:05:20.254Z,2.93
2018-04-28T09:07:46.147Z,2.93
2018-04-28T09:10:12.001Z,3.10
2018-04-28T09:12:37.860Z,2.70
2018-04-28T09:15:03.745Z,3.07
2018-04-28T09:17:29.587Z,3.17
2018-04-28T09:19:55.462Z,3.00
2018-04-28T09:22:21.302Z,3.40
2018-04-28T09:24:47.166Z,2.80
2018-04-28T09:27:12.996Z,2.80
2018-04-28T09:29:38.877Z,2.80
2018-04-28T09:32:04.724Z,3.60
2018-04-28T09:34:30.557Z,3.30
2018-04-28T09:36:56.416Z,2.97
2018-04-28T09:39:22.265Z,2.83
2018-04-28T09:41:48.127Z,3.33
2018-04-28T09:44:13.970Z,3.20
2018-04-28T09:46:39.828Z,3.80
2018-04-28T09:49:05.645Z,3.27
2018-04-28T09:51:31.514Z,3.43
2018-04-28T09:53:57.360Z,3.13
2018-04-28T09:56:23.192Z,3.43
2018-04-28T09:58:49.058Z,3.57
2018-04-28T10:01:19.853Z,4.20
2018-04-28T10:03:45.750Z,3.60
2018-04-28T10:06:11.605Z,3.53
2018-04-28T10:08:37.500Z,3.67
2018-04-28T10:11:03.393Z,3.57
2018-04-28T10:13:29.259Z,3.30
2018-04-28T10:15:55.106Z,3.13
2018-04-28T10:18:21.002Z,2.93
2018-04-28T10:20:46.846Z,3.83
2018-04-28T10:23:12.678Z,3.33
2018-04-28T10:25:38.533Z,3.07
2018-04-28T10:28:04.387Z,3.40
2018-04-28T10:30:30.474Z,3.67
2018-04-28T10:32:56.302Z,3.40
2018-04-28T10:35:22.170Z,3.30
2018-04-28T10:37:48.034Z,2.80
2018-04-28T10:40:13.905Z,3.37
2018-04-28T10:42:39.768Z,3.40
2018-04-28T10:45:05.604Z,3.00
2018-04-28T10:47:31.471Z,3.00
2018-04-28T10:49:57.332Z,4.40
2018-04-28T10:52:23.250Z,3.93
2018-04-28T10:54:49.096Z,3.10
2018-04-28T10:57:14.939Z,3.10
2018-04-28T10:59:40.795Z,3.37
2018-04-28T11:02:06.633Z,3.77
2018-04-28T11:04:32.481Z,3.73
2018-04-28T11:06:58.334Z,3.40
2018-04-28T11:09:24.180Z,3.63
2018-04-28T11:11:50.019Z,3.50
2018-04-28T11:14:15.891Z,3.10
2018-04-28T11:16:41.775Z,3.30
2018-04-28T11:19:07.630Z,3.43
2018-04-28T11:21:33.506Z,3.00
2018-04-28T11:23:59.366Z,2.70
2018-04-28T11:26:25.250Z,2.90
2018-04-28T11:28:51.399Z,2.80
2018-04-28T11:31:17.249Z,2.40
2018-04-28T11:33:43.102Z,2.60
2018-04-28T11:36:08.942Z,2.20
2018-04-28T11:38:34.805Z,2.60
2018-04-28T11:41:00.668Z,2.70
2018-04-28T11:43:26.561Z,2.80
2018-04-28T11:45:52.435Z,2.63
2018-04-28T11:48:18.286Z,2.30
2018-04-28T11:50:44.126Z,2.40
2018-04-28T11:53:09.968Z,2.70
2018-04-28T11:55:35.809Z,2.40
2018-04-28T11:58:01.678Z,2.50
2018-04-28T12:00:27.540Z,2.50
2018-04-28T12:02:53.360Z,2.77
2018-04-28T12:05:19.211Z,2.97
2018-04-28T12:07:45.065Z,2.30
2018-04-28T12:10:10.939Z,2.60
2018-04-28T12:12:36.813Z,2.30
2018-04-28T12:15:02.661Z,2.90
2018-04-28T12:17:28.504Z,2.70
2018-04-28T12:19:54.366Z,2.63
2018-04-28T12:22:20.200Z,2.47
2018-04-28T12:24:46.052Z,2.83
2018-04-28T12:27:11.883Z,2.93
2018-04-28T12:29:37.849Z,2.17
2018-04-28T12:32:03.685Z,2.70
2018-04-28T12:34:29.520Z,2.00
2018-04-28T12:36:55.373Z,2.57
2018-04-28T12:39:21.239Z,2.80
2018-04-28T12:41:47.112Z,2.60
2018-04-28T12:44:12.941Z,2.83
2018-04-28T12:46:38.804Z,2.50
2018-04-28T12:49:04.638Z,3.00
2018-04-28T12:51:30.487Z,2.40
2018-04-28T12:53:56.332Z,2.90
2018-04-28T12:56:22.202Z,2.73
2018-04-28T12:58:48.052Z,2.50
2018-04-28T13:01:13.898Z,2.93
2018-04-28T13:03:39.740Z,2.50
2018-04-28T13:06:05.656Z,2.43
2018-04-28T13:08:31.495Z,3.03
2018-04-28T13:10:57.343Z,2.40
2018-04-28T13:13:23.185Z,2.63
2018-04-28T13:15:49.002Z,2.50
2018-04-28T13:18:14.859Z,2.67
2018-04-28T13:20:40.710Z,2.30
2018-04-28T13:23:06.564Z,2.30
2018-04-28T13:25:32.423Z,2.27
2018-04-28T13:27:58.312Z,2.13
2018-04-28T13:30:24.146Z,2.10
2018-04-28T13:32:49.995Z,2.50
2018-04-28T13:35:15.827Z,2.53
2018-04-28T13:37:41.674Z,2.37
2018-04-28T13:40:07.526Z,1.87
2018-04-28T13:42:33.375Z,2.13
2018-04-28T13:44:59.218Z,2.23
2018-04-28T13:47:25.083Z,2.23
2018-04-28T13:49:50.943Z,2.20
2018-04-28T13:52:16.807Z,2.40
2018-04-28T13:54:42.677Z,2.40
2018-04-28T13:57:08.539Z,2.23
2018-04-28T13:59:34.369Z,2.27
2018-04-28T14:02:00.235Z,2.10
2018-04-28T14:04:26.076Z,2.23
2018-04-28T14:06:51.937Z,2.20
2018-04-28T14:09:17.786Z,2.60
2018-04-28T14:11:43.615Z,2.20
2018-04-28T14:14:09.586Z,2.23
2018-04-28T14:16:35.397Z,1.93
2018-04-28T14:19:01.270Z,2.30
2018-04-28T14:21:27.136Z,1.97
2018-04-28T14:23:52.989Z,2.10
2018-04-28T14:26:18.833Z,1.90
2018-04-28T14:28:44.711Z,2.20
2018-04-28T14:31:10.567Z,2.60
2018-04-28T14:33:36.387Z,2.30
2018-04-28T14:36:02.263Z,2.37
2018-04-28T14:38:28.112Z,1.83
2018-04-28T14:40:53.952Z,2.00
2018-04-28T14:43:19.819Z,2.37
2018-04-28T14:45:45.691Z,2.57
2018-04-28T14:48:11.530Z,2.43
2018-04-28T14:50:37.405Z,2.10
2018-04-28T14:53:03.263Z,2.00
2018-04-28T14:55:29.116Z,2.00
2018-04-28T14:57:54.971Z,1.90
2018-04-28T15:00:20.834Z,1.87
2018-04-28T15:02:46.693Z,1.93
2018-04-28T15:05:12.525Z,2.10
2018-04-28T15:07:38.353Z,2.17
2018-04-28T15:10:04.199Z,2.17
2018-04-28T15:12:30.054Z,2.83
2018-04-28T15:14:55.893Z,2.10
2018-04-28T15:17:21.765Z,5.87
2018-04-28T15:19:47.610Z,5.30
2018-04-28T15:22:13.450Z,6.17
2018-04-28T15:24:39.309Z,3.53
2018-04-28T15:27:05.166Z,3.23
2018-04-28T15:29:31.036Z,2.50
2018-04-28T15:31:56.889Z,2.40
2018-04-28T15:34:22.734Z,2.20
2018-04-28T15:36:48.584Z,1.80
2018-04-28T15:39:14.465Z,2.20
2018-04-28T15:41:40.314Z,2.00
2018-04-28T15:44:06.188Z,2.13
2018-04-28T15:46:32.043Z,2.33
2018-04-28T15:48:57.908Z,2.90
2018-04-28T15:51:23.810Z,2.40
2018-04-28T15:53:49.656Z,2.17
2018-04-28T15:56:15.499Z,2.20
2018-04-28T15:58:41.336Z,2.30
2018-04-28T16:01:07.188Z,2.37
2018-04-28T16:03:33.061Z,2.30
2018-04-28T16:05:58.900Z,2.60
2018-04-28T16:08:24.750Z,2.23
2018-04-28T16:10:50.577Z,2.27
2018-04-28T16:13:16.437Z,2.37
2018-04-28T16:15:42.264Z,2.50
2018-04-28T16:18:08.115Z,2.70
2018-04-28T16:20:33.946Z,2.27
2018-04-28T16:22:59.819Z,2.13
2018-04-28T16:25:25.657Z,2.20
2018-04-28T16:27:51.500Z,2.40
2018-04-28T16:30:17.347Z,1.90
2018-04-28T16:32:43.204Z,2.17
2018-04-28T16:35:09.038Z,2.73
2018-04-28T16:37:34.886Z,1.80
2018-04-28T16:40:00.761Z,2.53
2018-04-28T16:42:26.598Z,2.83
2018-04-28T16:44:52.468Z,2.70
2018-04-28T16:47:18.311Z,2.83
2018-04-28T16:49:44.191Z,2.50
2018-04-28T16:52:10.043Z,2.47
2018-04-28T16:54:35.911Z,2.20
2018-04-28T16:57:01.756Z,2.87
2018-04-28T16:59:27.723Z,2.70
2018-04-28T17:01:53.557Z,2.60
2018-04-28T17:04:19.398Z,2.10
2018-04-28T17:06:45.246Z,2.20
2018-04-28T17:09:11.094Z,2.13
2018-04-28T17:11:36.959Z,1.80
2018-04-28T17:14:02.791Z,1.60
2018-04-28T17:16:28.622Z,1.60
2018-04-28T17:18:54.455Z,2.30
2018-04-28T17:21:20.325Z,2.03
2018-04-28T17:23:46.150Z,2.07
2018-04-28T17:26:12.000Z,1.73
2018-04-28T17:28:37.867Z,1.50
2018-04-28T17:31:03.778Z,1.90
2018-04-28T17:33:29.668Z,2.07
2018-04-28T17:35:55.517Z,1.83
2018-04-28T17:38:21.415Z,2.03
2018-04-28T17:40:47.299Z,1.70
2018-04-28T17:43:13.223Z,2.10
2018-04-28T17:45:39.079Z,2.10
2018-04-28T17:48:04.924Z,1.60
2018-04-28T17:50:30.795Z,2.00
2018-04-28T17:52:56.621Z,1.87
2018-04-28T17:55:22.471Z,2.40
2018-04-28T17:57:48.325Z,1.90
2018-04-28T18:00:14.219Z,1.90
2018-04-28T18:02:40.093Z,2.00
2018-04-28T18:05:05.969Z,1.80
2018-04-28T18:07:31.820Z,1.60
2018-04-28T18:09:57.671Z,1.70
2018-04-28T18:12:23.530Z,2.40
2018-04-28T18:14:49.382Z,2.10
2018-04-28T18:17:15.382Z,2.40
2018-04-28T18:19:41.255Z,2.50
2018-04-28T18:22:07.205Z,2.33
2018-04-28T18:24:33.077Z,1.70
2018-04-28T18:26:58.932Z,2.00
2018-04-28T18:29:24.796Z,1.63
2018-04-28T18:31:50.668Z,1.70
2018-04-28T18:34:16.554Z,2.10
2018-04-28T18:36:42.403Z,1.73
2018-04-28T18:39:08.237Z,1.87
2018-04-28T18:41:34.109Z,1.70
2018-04-28T18:43:59.961Z,2.00
2018-04-28T18:46:25.911Z,1.60
2018-04-28T18:48:51.743Z,2.10
2018-04-28T18:51:17.626Z,2.00
2018-04-28T18:53:43.582Z,1.90
2018-04-28T18:56:09.467Z,2.20
2018-04-28T18:58:35.355Z,3.03
2018-04-28T19:01:01.262Z,3.10
2018-04-28T19:03:27.214Z,3.17
2018-04-28T19:05:53.108Z,2.97
2018-04-28T19:08:19.046Z,2.73
2018-04-28T19:10:44.890Z,2.57
2018-04-28T19:13:10.775Z,2.43
2018-04-28T19:15:37.544Z,2.93
2018-04-28T19:18:03.409Z,3.10
2018-04-28T19:20:29.282Z,3.00
2018-04-28T19:22:55.158Z,3.10
2018-04-28T19:25:21.023Z,2.90
2018-04-28T19:27:46.884Z,3.30
2018-04-28T19:30:12.737Z,3.10
2018-04-28T19:32:39.613Z,2.87
2018-04-28T19:35:05.524Z,3.40
2018-04-28T19:37:31.376Z,3.27
2018-04-28T19:39:57.292Z,3.60
2018-04-28T19:42:23.170Z,3.40
2018-04-28T19:44:49.106Z,3.60
2018-04-28T19:47:15.015Z,2.77
2018-04-28T19:49:40.889Z,3.47
2018-04-28T19:52:06.807Z,3.10
2018-04-28T19:54:32.674Z,3.43
2018-04-28T19:56:58.573Z,3.53
2018-04-28T19:59:24.537Z,3.67
2018-04-28T20:01:50.426Z,4.73
2018-04-28T20:04:16.320Z,6.00
2018-04-28T20:06:42.202Z,6.90
2018-04-28T20:09:08.128Z,6.87
2018-04-28T20:11:33.952Z,7.00
2018-04-28T20:13:59.821Z,7.83
2018-04-28T20:16:25.743Z,8.57
2018-04-28T20:18:51.611Z,8.63
2018-04-28T20:21:17.540Z,9.30
2018-04-28T20:23:55.734Z,8.13
2018-04-28T20:26:21.630Z,8.10
2018-04-28T20:28:47.533Z,7.70
2018-04-28T20:31:13.421Z,7.03
2018-04-28T20:33:39.306Z,6.30
2018-04-28T20:36:05.183Z,6.10
2018-04-28T20:38:31.105Z,6.50
2018-04-28T20:40:56.954Z,5.43
2018-04-28T20:43:22.834Z,5.23
2018-04-28T20:45:48.689Z,4.33
2018-04-28T20:48:14.644Z,4.87
2018-04-28T20:50:40.515Z,4.57
2018-04-28T20:53:07.286Z,4.70
2018-04-28T20:55:33.213Z,4.70
2018-04-28T20:57:59.073Z,4.80
2018-04-28T21:00:24.970Z,4.23
2018-04-28T21:02:50.872Z,4.50
2018-04-28T21:05:16.779Z,4.60
2018-04-28T21:07:42.638Z,4.70
2018-04-28T21:10:08.574Z,3.80
2018-04-28T21:12:34.424Z,4.47
2018-04-28T21:15:00.336Z,4.17
2018-04-28T21:17:26.198Z,3.77
2018-04-28T21:19:52.051Z,4.43
2018-04-28T21:22:17.955Z,4.63
2018-04-28T21:24:43.814Z,4.73
2018-04-28T21:27:09.676Z,4.07
2018-04-28T21:29:35.605Z,4.50
2018-04-28T21:32:01.472Z,4.43
2018-04-28T21:34:27.323Z,4.87
2018-04-28T21:36:53.205Z,4.73
2018-04-28T21:39:19.080Z,4.00
2018-04-28T21:41:44.921Z,4.60
2018-04-28T21:44:10.759Z,4.10
2018-04-28T21:46:36.611Z,4.10
2018-04-28T21:49:02.499Z,4.00
2018-04-28T21:51:28.377Z,3.97
2018-04-28T21:53:54.236Z,4.03
2018-04-28T21:56:20.097Z,4.50
2018-04-28T21:58:45.974Z,4.00
2018-04-28T22:01:11.832Z,4.20
2018-04-28T22:03:37.707Z,3.97
2018-04-28T22:06:03.635Z,3.73
2018-04-28T22:08:29.494Z,3.80
2018-04-28T22:10:55.404Z,4.30
2018-04-28T22:13:21.267Z,3.80
2018-04-28T22:15:47.177Z,3.80
2018-04-28T22:18:13.063Z,4.40
2018-04-28T22:20:38.915Z,4.00
2018-04-28T22:23:04.767Z,4.23
2018-04-28T22:25:30.640Z,3.90
2018-04-28T22:27:56.496Z,4.07
2018-04-28T22:30:22.350Z,4.00
2018-04-28T22:32:48.199Z,4.00
2018-04-28T22:35:14.123Z,3.83
2018-04-28T22:37:39.979Z,3.73
2018-04-28T22:40:05.796Z,3.70
2018-04-28T22:42:31.686Z,3.67
2018-04-28T22:44:57.670Z,3.93
2018-04-28T22:47:23.550Z,3.60
2018-04-28T22:49:49.389Z,3.30
2018-04-28T22:52:15.320Z,3.57
2018-04-28T22:54:41.130Z,3.70
2018-04-28T22:57:06.999Z,4.00
2018-04-28T22:59:32.857Z,6.63
2018-04-28T23:01:58.714Z,4.00
2018-04-28T23:04:24.542Z,3.77
2018-04-28T23:06:50.456Z,2.93
2018-04-28T23:09:16.267Z,3.13
2018-04-28T23:11:42.100Z,3.10
2018-04-28T23:14:07.962Z,3.00
2018-04-28T23:16:33.815Z,3.07
2018-04-28T23:18:59.680Z,3.30
2018-04-28T23:21:25.529Z,3.60
2018-04-28T23:23:51.373Z,3.40
2018-04-28T23:26:17.215Z,3.20
2018-04-28T23:28:43.049Z,3.60
2018-04-28T23:31:08.881Z,3.40
2018-04-28T23:33:34.748Z,3.40
2018-04-28T23:36:00.612Z,3.37
2018-04-28T23:38:26.445Z,3.60
2018-04-28T23:40:52.315Z,3.53
2018-04-28T23:43:18.155Z,3.40
2018-04-28T23:45:44.012Z,3.70
2018-04-28T23:48:09.899Z,3.40
2018-04-28T23:50:35.734Z,4.00
2018-04-28T23:53:01.619Z,3.40
2018-04-28T23:55:27.475Z,3.70
2018-04-28T23:57:53.331Z,3.40
